sensor_id;sensor_type;location;lat;lon;timestamp;P1;durP1;ratioP1;P2;durP2;ratioP2
69386;SDS011;56575;48.942;8.404;2022-11-20T00:00:00;25.47;;;11.37;;
69386;SDS011;56575;48.942;8.404;2022-11-20T00:02:25;23.87;;;11.47;;
69386;SDS011;56575;48.942;8.404;2022-11-20T00:04:51;23.67;;;11.10;;
69386;SDS011;56575;48.942;8.404;2022-11-20T00:07:16;20.77;;;9.93;;
69386;SDS011;56575;48.942;8.404;2022-11-20T00:09:42;26.23;;;12.40;;
69386;SDS011;56575;48.942;8.404;2022-11-20T00:12:07;24.60;;;11.33;;
69386;SDS011;56575;48.942;8.404;2022-11-20T00:14:32;22.67;;;10.90;;
69386;SDS011;56575;48.942;8.404;2022-11-20T00:16:58;26.65;;;10.68;;
69386;SDS011;56575;48.942;8.404;2022-11-20T00:19:23;25.20;;;11.33;;
69386;SDS011;56575;48.942;8.404;2022-11-20T00:21:49;28.33;;;11.10;;
69386;SDS011;56575;48.942;8.404;2022-11-20T00:24:16;25.47;;;10.73;;
69386;SDS011;56575;48.942;8.404;2022-11-20T00:26:42;21.00;;;10.63;;
69386;SDS011;56575;48.942;8.404;2022-11-20T00:29:08;22.00;;;10.17;;
69386;SDS011;56575;48.942;8.404;2022-11-20T00:31:34;21.30;;;10.07;;
69386;SDS011;56575;48.942;8.404;2022-11-20T00:34:00;21.00;;;10.10;;
69386;SDS011;56575;48.942;8.404;2022-11-20T00:36:26;21.33;;;9.73;;
69386;SDS011;56575;48.942;8.404;2022-11-20T00:38:52;20.23;;;8.95;;
69386;SDS011;56575;48.942;8.404;2022-11-20T00:41:19;17.98;;;8.80;;
69386;SDS011;56575;48.942;8.404;2022-11-20T00:43:45;18.23;;;9.23;;
69386;SDS011;56575;48.942;8.404;2022-11-20T00:46:17;17.27;;;8.53;;
69386;SDS011;56575;48.942;8.404;2022-11-20T00:48:44;17.33;;;8.57;;
69386;SDS011;56575;48.942;8.404;2022-11-20T00:51:11;18.75;;;8.48;;
69386;SDS011;56575;48.942;8.404;2022-11-20T00:53:38;17.03;;;8.33;;
69386;SDS011;56575;48.942;8.404;2022-11-20T00:56:05;17.08;;;9.07;;
69386;SDS011;56575;48.942;8.404;2022-11-20T00:58:33;15.57;;;8.37;;
69386;SDS011;56575;48.942;8.404;2022-11-20T01:01:08;14.10;;;7.65;;
69386;SDS011;56575;48.942;8.404;2022-11-20T01:03:39;17.00;;;8.25;;
69386;SDS011;56575;48.942;8.404;2022-11-20T01:06:09;15.77;;;7.72;;
69386;SDS011;56575;48.942;8.404;2022-11-20T01:08:36;18.42;;;8.68;;
69386;SDS011;56575;48.942;8.404;2022-11-20T01:11:03;18.03;;;8.20;;
69386;SDS011;56575;48.942;8.404;2022-11-20T01:13:30;16.70;;;8.25;;
69386;SDS011;56575;48.942;8.404;2022-11-20T01:18:38;18.17;;;8.40;;
69386;SDS011;56575;48.942;8.404;2022-11-20T01:21:05;18.95;;;8.02;;
69386;SDS011;56575;48.942;8.404;2022-11-20T01:23:33;15.90;;;8.17;;
69386;SDS011;56575;48.942;8.404;2022-11-20T01:26:00;15.98;;;7.45;;
69386;SDS011;56575;48.942;8.404;2022-11-20T01:28:27;16.25;;;8.77;;
69386;SDS011;56575;48.942;8.404;2022-11-20T01:30:53;18.08;;;8.95;;
69386;SDS011;56575;48.942;8.404;2022-11-20T01:33:18;17.50;;;8.23;;
69386;SDS011;56575;48.942;8.404;2022-11-20T01:35:44;17.43;;;8.13;;
69386;SDS011;56575;48.942;8.404;2022-11-20T01:38:09;16.70;;;8.13;;
69386;SDS011;56575;48.942;8.404;2022-11-20T01:40:34;15.10;;;7.97;;
69386;SDS011;56575;48.942;8.404;2022-11-20T01:43:12;13.30;;;7.33;;
69386;SDS011;56575;48.942;8.404;2022-11-20T01:46:01;15.63;;;7.25;;
69386;SDS011;56575;48.942;8.404;2022-11-20T01:48:42;14.40;;;6.37;;
69386;SDS011;56575;48.942;8.404;2022-11-20T01:51:57;12.68;;;6.88;;
69386;SDS011;56575;48.942;8.404;2022-11-20T01:54:00;14.68;;;6.63;;
69386;SDS011;56575;48.942;8.404;2022-11-20T01:56:29;11.18;;;6.18;;
69386;SDS011;56575;48.942;8.404;2022-11-20T01:58:58;11.05;;;6.32;;
69386;SDS011;56575;48.942;8.404;2022-11-20T02:01:26;10.93;;;5.60;;
69386;SDS011;56575;48.942;8.404;2022-11-20T02:03:52;10.00;;;5.80;;
69386;SDS011;56575;48.942;8.404;2022-11-20T02:06:25;10.17;;;5.10;;
69386;SDS011;56575;48.942;8.404;2022-11-20T02:08:55;9.13;;;4.90;;
69386;SDS011;56575;48.942;8.404;2022-11-20T02:11:21;13.03;;;5.33;;
69386;SDS011;56575;48.942;8.404;2022-11-20T02:13:47;9.00;;;4.97;;
69386;SDS011;56575;48.942;8.404;2022-11-20T02:18:41;9.53;;;4.77;;
69386;SDS011;56575;48.942;8.404;2022-11-20T02:26:48;8.35;;;3.97;;
69386;SDS011;56575;48.942;8.404;2022-11-20T02:29:19;8.52;;;4.22;;
69386;SDS011;56575;48.942;8.404;2022-11-20T02:32:00;7.93;;;4.40;;
69386;SDS011;56575;48.942;8.404;2022-11-20T02:34:27;9.05;;;4.50;;
69386;SDS011;56575;48.942;8.404;2022-11-20T02:36:54;8.93;;;4.65;;
69386;SDS011;56575;48.942;8.404;2022-11-20T02:39:21;9.43;;;4.40;;
69386;SDS011;56575;48.942;8.404;2022-11-20T02:41:49;7.40;;;4.03;;
69386;SDS011;56575;48.942;8.404;2022-11-20T02:44:17;6.67;;;3.80;;
69386;SDS011;56575;48.942;8.404;2022-11-20T02:46:43;10.43;;;4.53;;
69386;SDS011;56575;48.942;8.404;2022-11-20T02:49:08;9.47;;;3.77;;
69386;SDS011;56575;48.942;8.404;2022-11-20T02:51:33;6.63;;;3.70;;
69386;SDS011;56575;48.942;8.404;2022-11-20T02:53:59;8.10;;;3.83;;
69386;SDS011;56575;48.942;8.404;2022-11-20T02:56:24;7.03;;;4.07;;
69386;SDS011;56575;48.942;8.404;2022-11-20T02:58:50;7.07;;;4.07;;
69386;SDS011;56575;48.942;8.404;2022-11-20T03:01:16;6.93;;;3.70;;
69386;SDS011;56575;48.942;8.404;2022-11-20T03:03:41;6.13;;;3.63;;
69386;SDS011;56575;48.942;8.404;2022-11-20T03:06:06;7.50;;;3.90;;
69386;SDS011;56575;48.942;8.404;2022-11-20T03:08:32;9.48;;;3.83;;
69386;SDS011;56575;48.942;8.404;2022-11-20T03:11:01;7.33;;;3.70;;
69386;SDS011;56575;48.942;8.404;2022-11-20T03:13:31;7.45;;;3.60;;
69386;SDS011;56575;48.942;8.404;2022-11-20T03:15:57;6.72;;;4.03;;
69386;SDS011;56575;48.942;8.404;2022-11-20T03:18:22;7.70;;;4.03;;
69386;SDS011;56575;48.942;8.404;2022-11-20T03:20:47;6.37;;;3.60;;
69386;SDS011;56575;48.942;8.404;2022-11-20T03:23:13;8.10;;;3.90;;
69386;SDS011;56575;48.942;8.404;2022-11-20T03:25:38;8.75;;;3.80;;
69386;SDS011;56575;48.942;8.404;2022-11-20T03:28:03;7.13;;;3.73;;
69386;SDS011;56575;48.942;8.404;2022-11-20T03:30:29;8.93;;;3.93;;
69386;SDS011;56575;48.942;8.404;2022-11-20T03:32:54;7.23;;;3.47;;
69386;SDS011;56575;48.942;8.404;2022-11-20T03:35:20;7.37;;;4.10;;
69386;SDS011;56575;48.942;8.404;2022-11-20T03:37:45;6.90;;;3.78;;
69386;SDS011;56575;48.942;8.404;2022-11-20T03:40:11;7.23;;;3.70;;
69386;SDS011;56575;48.942;8.404;2022-11-20T03:42:36;5.97;;;3.60;;
69386;SDS011;56575;48.942;8.404;2022-11-20T03:45:12;6.40;;;3.80;;
69386;SDS011;56575;48.942;8.404;2022-11-20T03:47:41;7.03;;;3.53;;
69386;SDS011;56575;48.942;8.404;2022-11-20T03:50:07;7.18;;;3.80;;
69386;SDS011;56575;48.942;8.404;2022-11-20T03:52:33;7.80;;;3.72;;
69386;SDS011;56575;48.942;8.404;2022-11-20T03:54:59;7.37;;;3.70;;
69386;SDS011;56575;48.942;8.404;2022-11-20T03:57:24;6.73;;;3.97;;
69386;SDS011;56575;48.942;8.404;2022-11-20T03:59:50;8.63;;;4.03;;
69386;SDS011;56575;48.942;8.404;2022-11-20T04:02:15;5.60;;;3.20;;
69386;SDS011;56575;48.942;8.404;2022-11-20T04:04:40;7.27;;;4.03;;
69386;SDS011;56575;48.942;8.404;2022-11-20T04:07:05;7.35;;;3.88;;
69386;SDS011;56575;48.942;8.404;2022-11-20T04:09:31;7.20;;;3.57;;
69386;SDS011;56575;48.942;8.404;2022-11-20T04:11:56;7.67;;;3.63;;
69386;SDS011;56575;48.942;8.404;2022-11-20T04:14:22;6.20;;;3.50;;
69386;SDS011;56575;48.942;8.404;2022-11-20T04:16:47;7.80;;;3.80;;
69386;SDS011;56575;48.942;8.404;2022-11-20T04:19:13;10.43;;;4.00;;
69386;SDS011;56575;48.942;8.404;2022-11-20T04:21:40;8.63;;;3.90;;
69386;SDS011;56575;48.942;8.404;2022-11-20T04:24:06;8.15;;;3.85;;
69386;SDS011;56575;48.942;8.404;2022-11-20T04:26:32;8.57;;;4.07;;
69386;SDS011;56575;48.942;8.404;2022-11-20T04:28:59;7.13;;;4.00;;
69386;SDS011;56575;48.942;8.404;2022-11-20T04:31:27;8.25;;;4.30;;
69386;SDS011;56575;48.942;8.404;2022-11-20T04:33:54;8.50;;;3.93;;
69386;SDS011;56575;48.942;8.404;2022-11-20T04:36:21;7.80;;;3.90;;
69386;SDS011;56575;48.942;8.404;2022-11-20T04:38:58;7.25;;;3.88;;
69386;SDS011;56575;48.942;8.404;2022-11-20T04:41:26;6.95;;;3.92;;
69386;SDS011;56575;48.942;8.404;2022-11-20T04:43:54;8.00;;;3.97;;
69386;SDS011;56575;48.942;8.404;2022-11-20T04:46:25;7.93;;;3.78;;
69386;SDS011;56575;48.942;8.404;2022-11-20T04:48:51;8.15;;;4.07;;
69386;SDS011;56575;48.942;8.404;2022-11-20T04:51:17;6.70;;;3.67;;
69386;SDS011;56575;48.942;8.404;2022-11-20T04:53:42;6.83;;;4.27;;
69386;SDS011;56575;48.942;8.404;2022-11-20T04:56:08;8.23;;;3.80;;
69386;SDS011;56575;48.942;8.404;2022-11-20T04:58:35;7.28;;;3.78;;
69386;SDS011;56575;48.942;8.404;2022-11-20T05:01:05;6.38;;;3.80;;
69386;SDS011;56575;48.942;8.404;2022-11-20T05:03:32;7.67;;;3.57;;
69386;SDS011;56575;48.942;8.404;2022-11-20T05:06:02;6.57;;;3.28;;
69386;SDS011;56575;48.942;8.404;2022-11-20T05:08:29;7.10;;;3.42;;
69386;SDS011;56575;48.942;8.404;2022-11-20T05:11:05;6.53;;;3.07;;
69386;SDS011;56575;48.942;8.404;2022-11-20T05:13:33;6.88;;;3.28;;
69386;SDS011;56575;48.942;8.404;2022-11-20T05:16:02;5.78;;;3.13;;
69386;SDS011;56575;48.942;8.404;2022-11-20T05:18:28;5.23;;;2.83;;
69386;SDS011;56575;48.942;8.404;2022-11-20T05:20:57;5.80;;;3.03;;
69386;SDS011;56575;48.942;8.404;2022-11-20T05:23:23;4.60;;;2.60;;
69386;SDS011;56575;48.942;8.404;2022-11-20T05:25:51;5.40;;;2.80;;
69386;SDS011;56575;48.942;8.404;2022-11-20T05:28:20;4.93;;;2.85;;
69386;SDS011;56575;48.942;8.404;2022-11-20T05:30:46;5.30;;;2.80;;
69386;SDS011;56575;48.942;8.404;2022-11-20T05:33:11;6.27;;;2.70;;
69386;SDS011;56575;48.942;8.404;2022-11-20T05:35:37;5.83;;;2.40;;
69386;SDS011;56575;48.942;8.404;2022-11-20T05:38:02;7.27;;;3.50;;
69386;SDS011;56575;48.942;8.404;2022-11-20T05:40:27;5.07;;;2.50;;
69386;SDS011;56575;48.942;8.404;2022-11-20T05:42:53;9.38;;;5.65;;
69386;SDS011;56575;48.942;8.404;2022-11-20T05:45:18;6.23;;;2.33;;
69386;SDS011;56575;48.942;8.404;2022-11-20T05:47:44;5.53;;;2.90;;
69386;SDS011;56575;48.942;8.404;2022-11-20T05:50:09;5.67;;;2.60;;
69386;SDS011;56575;48.942;8.404;2022-11-20T05:52:34;5.17;;;2.67;;
69386;SDS011;56575;48.942;8.404;2022-11-20T05:55:00;4.75;;;2.15;;
69386;SDS011;56575;48.942;8.404;2022-11-20T05:57:25;4.80;;;2.27;;
69386;SDS011;56575;48.942;8.404;2022-11-20T05:59:51;4.47;;;2.47;;
69386;SDS011;56575;48.942;8.404;2022-11-20T06:02:16;4.18;;;2.15;;
69386;SDS011;56575;48.942;8.404;2022-11-20T06:04:41;4.93;;;3.00;;
69386;SDS011;56575;48.942;8.404;2022-11-20T06:07:07;4.00;;;2.47;;
69386;SDS011;56575;48.942;8.404;2022-11-20T06:09:32;3.77;;;2.37;;
69386;SDS011;56575;48.942;8.404;2022-11-20T06:11:58;4.75;;;2.30;;
69386;SDS011;56575;48.942;8.404;2022-11-20T06:14:23;5.47;;;2.33;;
69386;SDS011;56575;48.942;8.404;2022-11-20T06:16:49;4.07;;;2.07;;
69386;SDS011;56575;48.942;8.404;2022-11-20T06:19:14;4.17;;;2.20;;
69386;SDS011;56575;48.942;8.404;2022-11-20T06:21:40;4.28;;;2.55;;
69386;SDS011;56575;48.942;8.404;2022-11-20T06:24:05;6.00;;;2.50;;
69386;SDS011;56575;48.942;8.404;2022-11-20T06:26:31;4.88;;;2.17;;
69386;SDS011;56575;48.942;8.404;2022-11-20T06:28:57;5.87;;;2.90;;
69386;SDS011;56575;48.942;8.404;2022-11-20T06:31:23;8.03;;;4.30;;
69386;SDS011;56575;48.942;8.404;2022-11-20T06:33:50;6.03;;;3.65;;
69386;SDS011;56575;48.942;8.404;2022-11-20T06:36:17;5.68;;;2.28;;
69386;SDS011;56575;48.942;8.404;2022-11-20T06:38:44;4.53;;;2.40;;
69386;SDS011;56575;48.942;8.404;2022-11-20T06:41:11;4.33;;;2.47;;
69386;SDS011;56575;48.942;8.404;2022-11-20T06:43:39;5.40;;;2.55;;
69386;SDS011;56575;48.942;8.404;2022-11-20T06:46:04;5.30;;;2.75;;
69386;SDS011;56575;48.942;8.404;2022-11-20T06:48:29;4.93;;;2.37;;
69386;SDS011;56575;48.942;8.404;2022-11-20T06:50:55;5.23;;;2.07;;
69386;SDS011;56575;48.942;8.404;2022-11-20T06:53:21;4.70;;;2.08;;
69386;SDS011;56575;48.942;8.404;2022-11-20T06:55:48;4.65;;;2.20;;
69386;SDS011;56575;48.942;8.404;2022-11-20T06:58:14;3.95;;;1.83;;
69386;SDS011;56575;48.942;8.404;2022-11-20T07:00:40;4.33;;;1.77;;
69386;SDS011;56575;48.942;8.404;2022-11-20T07:03:06;6.70;;;2.22;;
69386;SDS011;56575;48.942;8.404;2022-11-20T07:05:33;4.45;;;2.10;;
69386;SDS011;56575;48.942;8.404;2022-11-20T07:07:59;3.77;;;1.87;;
69386;SDS011;56575;48.942;8.404;2022-11-20T07:10:25;4.43;;;2.83;;
69386;SDS011;56575;48.942;8.404;2022-11-20T07:12:51;4.72;;;1.67;;
69386;SDS011;56575;48.942;8.404;2022-11-20T07:15:18;3.67;;;1.90;;
69386;SDS011;56575;48.942;8.404;2022-11-20T07:17:44;3.45;;;1.50;;
69386;SDS011;56575;48.942;8.404;2022-11-20T07:20:10;4.10;;;1.77;;
69386;SDS011;56575;48.942;8.404;2022-11-20T07:22:36;3.20;;;2.00;;
69386;SDS011;56575;48.942;8.404;2022-11-20T07:25:02;3.10;;;1.47;;
69386;SDS011;56575;48.942;8.404;2022-11-20T07:27:28;3.10;;;1.58;;
69386;SDS011;56575;48.942;8.404;2022-11-20T07:29:54;3.72;;;1.77;;
69386;SDS011;56575;48.942;8.404;2022-11-20T07:32:19;3.03;;;1.63;;
69386;SDS011;56575;48.942;8.404;2022-11-20T07:34:44;3.97;;;2.20;;
69386;SDS011;56575;48.942;8.404;2022-11-20T07:37:10;3.85;;;2.10;;
69386;SDS011;56575;48.942;8.404;2022-11-20T07:39:36;3.30;;;1.93;;
69386;SDS011;56575;48.942;8.404;2022-11-20T07:42:01;3.10;;;1.63;;
69386;SDS011;56575;48.942;8.404;2022-11-20T07:44:26;4.83;;;1.63;;
69386;SDS011;56575;48.942;8.404;2022-11-20T07:46:52;3.67;;;1.70;;
69386;SDS011;56575;48.942;8.404;2022-11-20T07:49:17;4.20;;;1.80;;
69386;SDS011;56575;48.942;8.404;2022-11-20T07:51:42;4.10;;;1.80;;
69386;SDS011;56575;48.942;8.404;2022-11-20T07:54:08;4.77;;;2.20;;
69386;SDS011;56575;48.942;8.404;2022-11-20T07:56:33;3.53;;;2.30;;
69386;SDS011;56575;48.942;8.404;2022-11-20T07:58:59;4.53;;;2.10;;
69386;SDS011;56575;48.942;8.404;2022-11-20T08:01:24;3.10;;;1.70;;
69386;SDS011;56575;48.942;8.404;2022-11-20T08:03:50;3.23;;;2.00;;
69386;SDS011;56575;48.942;8.404;2022-11-20T08:06:15;3.17;;;1.77;;
69386;SDS011;56575;48.942;8.404;2022-11-20T08:08:40;6.10;;;2.50;;
69386;SDS011;56575;48.942;8.404;2022-11-20T08:11:06;4.43;;;1.93;;
69386;SDS011;56575;48.942;8.404;2022-11-20T08:13:50;4.15;;;2.58;;
69386;SDS011;56575;48.942;8.404;2022-11-20T08:16:34;4.13;;;1.90;;
69386;SDS011;56575;48.942;8.404;2022-11-20T08:18:59;5.38;;;2.30;;
69386;SDS011;56575;48.942;8.404;2022-11-20T08:21:24;3.47;;;1.80;;
69386;SDS011;56575;48.942;8.404;2022-11-20T08:23:50;4.40;;;2.20;;
69386;SDS011;56575;48.942;8.404;2022-11-20T08:26:15;3.17;;;1.83;;
69386;SDS011;56575;48.942;8.404;2022-11-20T08:28:41;3.72;;;2.10;;
69386;SDS011;56575;48.942;8.404;2022-11-20T08:31:06;4.30;;;2.30;;
69386;SDS011;56575;48.942;8.404;2022-11-20T08:33:32;4.50;;;2.60;;
69386;SDS011;56575;48.942;8.404;2022-11-20T08:36:01;6.75;;;2.72;;
69386;SDS011;56575;48.942;8.404;2022-11-20T08:38:27;5.83;;;2.53;;
69386;SDS011;56575;48.942;8.404;2022-11-20T08:40:55;5.78;;;2.78;;
69386;SDS011;56575;48.942;8.404;2022-11-20T08:43:43;5.63;;;2.63;;
69386;SDS011;56575;48.942;8.404;2022-11-20T08:46:09;5.07;;;2.30;;
69386;SDS011;56575;48.942;8.404;2022-11-20T08:48:34;6.83;;;2.90;;
69386;SDS011;56575;48.942;8.404;2022-11-20T08:50:59;5.03;;;2.33;;
69386;SDS011;56575;48.942;8.404;2022-11-20T08:53:25;3.70;;;2.30;;
69386;SDS011;56575;48.942;8.404;2022-11-20T08:55:51;4.70;;;2.40;;
69386;SDS011;56575;48.942;8.404;2022-11-20T08:58:17;5.68;;;2.10;;
69386;SDS011;56575;48.942;8.404;2022-11-20T09:00:42;4.63;;;2.00;;
69386;SDS011;56575;48.942;8.404;2022-11-20T09:03:08;4.43;;;2.20;;
69386;SDS011;56575;48.942;8.404;2022-11-20T09:05:33;4.03;;;2.10;;
69386;SDS011;56575;48.942;8.404;2022-11-20T09:07:59;5.00;;;2.30;;
69386;SDS011;56575;48.942;8.404;2022-11-20T09:10:25;4.38;;;2.20;;
69386;SDS011;56575;48.942;8.404;2022-11-20T09:12:51;4.40;;;2.20;;
69386;SDS011;56575;48.942;8.404;2022-11-20T09:15:17;6.20;;;2.58;;
69386;SDS011;56575;48.942;8.404;2022-11-20T09:17:50;5.43;;;2.45;;
69386;SDS011;56575;48.942;8.404;2022-11-20T09:20:23;5.38;;;2.47;;
69386;SDS011;56575;48.942;8.404;2022-11-20T09:22:48;5.17;;;2.77;;
69386;SDS011;56575;48.942;8.404;2022-11-20T09:25:13;6.33;;;2.97;;
69386;SDS011;56575;48.942;8.404;2022-11-20T09:27:39;5.28;;;2.88;;
69386;SDS011;56575;48.942;8.404;2022-11-20T09:30:06;5.53;;;2.80;;
69386;SDS011;56575;48.942;8.404;2022-11-20T09:32:32;5.30;;;2.50;;
69386;SDS011;56575;48.942;8.404;2022-11-20T09:34:57;6.82;;;3.15;;
69386;SDS011;56575;48.942;8.404;2022-11-20T09:37:23;8.10;;;3.67;;
69386;SDS011;56575;48.942;8.404;2022-11-20T09:39:48;7.50;;;3.60;;
69386;SDS011;56575;48.942;8.404;2022-11-20T09:42:23;7.67;;;3.90;;
69386;SDS011;56575;48.942;8.404;2022-11-20T09:50:32;6.72;;;3.70;;
69386;SDS011;56575;48.942;8.404;2022-11-20T09:56:00;8.07;;;4.23;;
69386;SDS011;56575;48.942;8.404;2022-11-20T09:58:29;9.43;;;4.68;;
69386;SDS011;56575;48.942;8.404;2022-11-20T10:01:09;8.55;;;4.85;;
69386;SDS011;56575;48.942;8.404;2022-11-20T10:06:15;7.53;;;4.13;;
69386;SDS011;56575;48.942;8.404;2022-11-20T10:09:19;7.40;;;3.80;;
69386;SDS011;56575;48.942;8.404;2022-11-20T10:14:28;6.90;;;3.90;;
69386;SDS011;56575;48.942;8.404;2022-11-20T10:19:47;9.02;;;4.88;;
69386;SDS011;56575;48.942;8.404;2022-11-20T10:22:27;6.47;;;3.70;;
69386;SDS011;56575;48.942;8.404;2022-11-20T10:25:02;10.05;;;4.72;;
69386;SDS011;56575;48.942;8.404;2022-11-20T10:28:00;9.15;;;4.38;;
69386;SDS011;56575;48.942;8.404;2022-11-20T10:30:30;12.77;;;5.47;;
69386;SDS011;56575;48.942;8.404;2022-11-20T10:33:04;9.32;;;4.65;;
69386;SDS011;56575;48.942;8.404;2022-11-20T10:35:42;8.13;;;4.40;;
69386;SDS011;56575;48.942;8.404;2022-11-20T10:38:24;6.90;;;4.18;;
69386;SDS011;56575;48.942;8.404;2022-11-20T10:40:54;6.43;;;3.42;;
69386;SDS011;56575;48.942;8.404;2022-11-20T10:43:43;7.03;;;3.65;;
69386;SDS011;56575;48.942;8.404;2022-11-20T10:46:12;6.55;;;3.63;;
69386;SDS011;56575;48.942;8.404;2022-11-20T10:48:47;6.93;;;3.60;;
69386;SDS011;56575;48.942;8.404;2022-11-20T11:00:09;5.68;;;3.30;;
69386;SDS011;56575;48.942;8.404;2022-11-20T11:02:40;7.53;;;2.93;;
69386;SDS011;56575;48.942;8.404;2022-11-20T11:05:12;7.40;;;2.88;;
69386;SDS011;56575;48.942;8.404;2022-11-20T11:07:46;5.32;;;2.95;;
69386;SDS011;56575;48.942;8.404;2022-11-20T11:10:19;5.50;;;2.70;;
69386;SDS011;56575;48.942;8.404;2022-11-20T11:12:49;5.47;;;2.72;;
69386;SDS011;56575;48.942;8.404;2022-11-20T11:15:24;6.33;;;2.40;;
69386;SDS011;56575;48.942;8.404;2022-11-20T11:18:09;7.03;;;3.03;;
69386;SDS011;56575;48.942;8.404;2022-11-20T11:20:36;4.22;;;2.67;;
69386;SDS011;56575;48.942;8.404;2022-11-20T11:23:02;6.77;;;2.80;;
69386;SDS011;56575;48.942;8.404;2022-11-20T11:25:32;5.22;;;2.92;;
69386;SDS011;56575;48.942;8.404;2022-11-20T11:27:59;4.22;;;2.72;;
69386;SDS011;56575;48.942;8.404;2022-11-20T11:30:28;6.43;;;2.70;;
69386;SDS011;56575;48.942;8.404;2022-11-20T11:33:06;5.63;;;2.95;;
69386;SDS011;56575;48.942;8.404;2022-11-20T11:35:38;4.55;;;2.63;;
69386;SDS011;56575;48.942;8.404;2022-11-20T11:38:14;4.85;;;2.25;;
69386;SDS011;56575;48.942;8.404;2022-11-20T11:40:44;6.18;;;2.40;;
69386;SDS011;56575;48.942;8.404;2022-11-20T11:43:20;6.80;;;2.00;;
69386;SDS011;56575;48.942;8.404;2022-11-20T12:00:15;4.05;;;1.60;;
69386;SDS011;56575;48.942;8.404;2022-11-20T12:07:53;7.55;;;1.88;;
69386;SDS011;56575;48.942;8.404;2022-11-20T12:15:55;5.78;;;1.70;;
69386;SDS011;56575;48.942;8.404;2022-11-20T12:18:21;4.40;;;1.50;;
69386;SDS011;56575;48.942;8.404;2022-11-20T12:40:51;4.47;;;0.77;;
69386;SDS011;56575;48.942;8.404;2022-11-20T12:43:26;2.65;;;0.60;;
69386;SDS011;56575;48.942;8.404;2022-11-20T12:46:17;4.27;;;0.90;;
69386;SDS011;56575;48.942;8.404;2022-11-20T12:57:58;3.90;;;0.70;;
69386;SDS011;56575;48.942;8.404;2022-11-20T13:00:31;2.53;;;1.00;;
69386;SDS011;56575;48.942;8.404;2022-11-20T13:05:40;3.10;;;1.00;;
69386;SDS011;56575;48.942;8.404;2022-11-20T13:08:25;2.53;;;1.00;;
69386;SDS011;56575;48.942;8.404;2022-11-20T13:13:25;3.33;;;0.83;;
69386;SDS011;56575;48.942;8.404;2022-11-20T13:16:00;6.32;;;1.15;;
69386;SDS011;56575;48.942;8.404;2022-11-20T13:18:34;4.72;;;0.90;;
69386;SDS011;56575;48.942;8.404;2022-11-20T13:21:13;3.25;;;0.80;;
69386;SDS011;56575;48.942;8.404;2022-11-20T13:23:43;1.77;;;0.80;;
69386;SDS011;56575;48.942;8.404;2022-11-20T13:26:16;8.03;;;1.60;;
69386;SDS011;56575;48.942;8.404;2022-11-20T13:28:44;2.33;;;0.82;;
69386;SDS011;56575;48.942;8.404;2022-11-20T13:34:00;3.05;;;0.93;;
69386;SDS011;56575;48.942;8.404;2022-11-20T13:36:29;7.53;;;0.83;;
69386;SDS011;56575;48.942;8.404;2022-11-20T13:38:56;3.83;;;0.80;;
69386;SDS011;56575;48.942;8.404;2022-11-20T13:46:49;5.45;;;0.80;;
69386;SDS011;56575;48.942;8.404;2022-11-20T13:49:17;2.13;;;0.90;;
69386;SDS011;56575;48.942;8.404;2022-11-20T13:52:07;3.15;;;0.90;;
69386;SDS011;56575;48.942;8.404;2022-11-20T13:54:45;2.15;;;0.63;;
69386;SDS011;56575;48.942;8.404;2022-11-20T14:02:32;2.37;;;0.70;;
69386;SDS011;56575;48.942;8.404;2022-11-20T14:04:58;2.93;;;0.77;;
69386;SDS011;56575;48.942;8.404;2022-11-20T14:07:27;2.75;;;1.00;;
69386;SDS011;56575;48.942;8.404;2022-11-20T14:10:01;2.57;;;0.80;;
69386;SDS011;56575;48.942;8.404;2022-11-20T14:12:30;2.30;;;0.80;;
69386;SDS011;56575;48.942;8.404;2022-11-20T14:14:57;2.77;;;0.50;;
69386;SDS011;56575;48.942;8.404;2022-11-20T14:17:34;2.55;;;0.80;;
69386;SDS011;56575;48.942;8.404;2022-11-20T14:20:04;2.10;;;0.60;;
69386;SDS011;56575;48.942;8.404;2022-11-20T14:22:36;3.17;;;0.70;;
69386;SDS011;56575;48.942;8.404;2022-11-20T14:27:41;2.88;;;0.50;;
69386;SDS011;56575;48.942;8.404;2022-11-20T14:30:16;2.22;;;0.60;;
69386;SDS011;56575;48.942;8.404;2022-11-20T14:32:43;2.03;;;0.70;;
69386;SDS011;56575;48.942;8.404;2022-11-20T14:35:14;2.40;;;0.50;;
69386;SDS011;56575;48.942;8.404;2022-11-20T14:37:45;2.03;;;0.50;;
69386;SDS011;56575;48.942;8.404;2022-11-20T14:40:21;2.93;;;0.60;;
69386;SDS011;56575;48.942;8.404;2022-11-20T14:42:48;1.52;;;0.65;;
69386;SDS011;56575;48.942;8.404;2022-11-20T14:45:14;3.03;;;0.70;;
69386;SDS011;56575;48.942;8.404;2022-11-20T14:47:40;2.27;;;0.70;;
69386;SDS011;56575;48.942;8.404;2022-11-20T14:50:18;4.90;;;1.05;;
69386;SDS011;56575;48.942;8.404;2022-11-20T14:52:54;2.42;;;0.65;;
69386;SDS011;56575;48.942;8.404;2022-11-20T14:58:01;5.00;;;0.80;;
69386;SDS011;56575;48.942;8.404;2022-11-20T15:00:31;3.67;;;0.70;;
69386;SDS011;56575;48.942;8.404;2022-11-20T15:02:58;1.58;;;0.60;;
69386;SDS011;56575;48.942;8.404;2022-11-20T15:08:12;2.07;;;0.60;;
69386;SDS011;56575;48.942;8.404;2022-11-20T15:10:38;1.73;;;0.77;;
69386;SDS011;56575;48.942;8.404;2022-11-20T15:13:05;2.58;;;0.80;;
69386;SDS011;56575;48.942;8.404;2022-11-20T15:15:45;3.60;;;0.90;;
69386;SDS011;56575;48.942;8.404;2022-11-20T15:18:13;3.42;;;0.80;;
69386;SDS011;56575;48.942;8.404;2022-11-20T15:20:40;2.73;;;0.97;;
69386;SDS011;56575;48.942;8.404;2022-11-20T15:23:10;3.60;;;0.68;;
69386;SDS011;56575;48.942;8.404;2022-11-20T15:25:38;1.88;;;0.70;;
69386;SDS011;56575;48.942;8.404;2022-11-20T15:28:04;3.75;;;1.00;;
69386;SDS011;56575;48.942;8.404;2022-11-20T15:30:43;3.35;;;0.95;;
69386;SDS011;56575;48.942;8.404;2022-11-20T15:33:09;2.63;;;0.90;;
69386;SDS011;56575;48.942;8.404;2022-11-20T15:35:35;2.55;;;1.08;;
69386;SDS011;56575;48.942;8.404;2022-11-20T15:38:00;3.67;;;0.90;;
69386;SDS011;56575;48.942;8.404;2022-11-20T15:40:26;2.73;;;0.97;;
69386;SDS011;56575;48.942;8.404;2022-11-20T15:42:51;3.00;;;0.90;;
69386;SDS011;56575;48.942;8.404;2022-11-20T15:45:50;5.78;;;1.20;;
69386;SDS011;56575;48.942;8.404;2022-11-20T15:48:20;4.30;;;1.00;;
69386;SDS011;56575;48.942;8.404;2022-11-20T15:53:19;2.90;;;0.77;;
69386;SDS011;56575;48.942;8.404;2022-11-20T15:55:44;2.65;;;0.90;;
69386;SDS011;56575;48.942;8.404;2022-11-20T15:58:10;1.53;;;0.70;;
69386;SDS011;56575;48.942;8.404;2022-11-20T16:00:35;3.07;;;0.97;;
69386;SDS011;56575;48.942;8.404;2022-11-20T16:03:01;3.80;;;1.07;;
69386;SDS011;56575;48.942;8.404;2022-11-20T16:05:29;2.78;;;1.05;;
69386;SDS011;56575;48.942;8.404;2022-11-20T16:07:55;3.30;;;1.23;;
69386;SDS011;56575;48.942;8.404;2022-11-20T16:10:21;3.70;;;1.40;;
69386;SDS011;56575;48.942;8.404;2022-11-20T16:12:47;4.43;;;1.10;;
69386;SDS011;56575;48.942;8.404;2022-11-20T16:15:31;4.37;;;1.40;;
69386;SDS011;56575;48.942;8.404;2022-11-20T16:18:15;2.55;;;0.70;;
69386;SDS011;56575;48.942;8.404;2022-11-20T16:20:45;1.88;;;0.93;;
69386;SDS011;56575;48.942;8.404;2022-11-20T16:23:13;4.22;;;1.00;;
69386;SDS011;56575;48.942;8.404;2022-11-20T16:25:38;2.37;;;1.10;;
69386;SDS011;56575;48.942;8.404;2022-11-20T16:28:04;1.73;;;0.98;;
69386;SDS011;56575;48.942;8.404;2022-11-20T16:30:30;2.10;;;1.00;;
69386;SDS011;56575;48.942;8.404;2022-11-20T16:32:57;2.85;;;1.02;;
69386;SDS011;56575;48.942;8.404;2022-11-20T16:35:22;5.97;;;1.20;;
69386;SDS011;56575;48.942;8.404;2022-11-20T16:37:48;2.10;;;1.20;;
69386;SDS011;56575;48.942;8.404;2022-11-20T16:40:13;3.22;;;1.08;;
69386;SDS011;56575;48.942;8.404;2022-11-20T16:42:39;46.00;;;21.40;;
69386;SDS011;56575;48.942;8.404;2022-11-20T16:45:04;6.00;;;2.50;;
69386;SDS011;56575;48.942;8.404;2022-11-20T16:47:33;15.75;;;10.05;;
69386;SDS011;56575;48.942;8.404;2022-11-20T16:50:00;4.28;;;2.30;;
69386;SDS011;56575;48.942;8.404;2022-11-20T16:52:26;5.80;;;4.40;;